sensor_id;sensor_type;location;lat;lon;timestamp;temperature;humidity
47546;DHT22;50104;52.002;4.688;2024-03-08T00:02:37;4.90;82.30
47546;DHT22;50104;52.002;4.688;2024-03-08T00:07:39;4.80;82.40
47546;DHT22;50104;52.002;4.688;2024-03-08T00:12:41;4.80;82.30
47546;DHT22;50104;52.002;4.688;2024-03-08T00:17:44;4.70;82.60
47546;DHT22;50104;52.002;4.688;2024-03-08T00:22:45;4.70;82.60
47546;DHT22;50104;52.002;4.688;2024-03-08T00:27:46;4.70;82.60
47546;DHT22;50104;52.002;4.688;2024-03-08T00:32:49;4.60;82.40
47546;DHT22;50104;52.002;4.688;2024-03-08T00:37:50;4.60;82.50
47546;DHT22;50104;52.002;4.688;2024-03-08T00:42:51;4.50;82.40
47546;DHT22;50104;52.002;4.688;2024-03-08T00:47:53;4.50;82.40
47546;DHT22;50104;52.002;4.688;2024-03-08T00:52:55;4.40;82.60
47546;DHT22;50104;52.002;4.688;2024-03-08T00:57:56;4.40;82.50
47546;DHT22;50104;52.002;4.688;2024-03-08T01:02:57;4.40;82.20
47546;DHT22;50104;52.002;4.688;2024-03-08T01:07:58;4.30;82.30
47546;DHT22;50104;52.002;4.688;2024-03-08T01:12:59;4.30;81.90
47546;DHT22;50104;52.002;4.688;2024-03-08T01:18:00;4.20;82.00
47546;DHT22;50104;52.002;4.688;2024-03-08T01:23:01;4.20;82.00
47546;DHT22;50104;52.002;4.688;2024-03-08T01:28:02;4.10;82.20
47546;DHT22;50104;52.002;4.688;2024-03-08T01:33:04;4.10;82.10
47546;DHT22;50104;52.002;4.688;2024-03-08T01:38:05;4.10;82.30
47546;DHT22;50104;52.002;4.688;2024-03-08T01:43:26;4.00;82.20
47546;DHT22;50104;52.002;4.688;2024-03-08T01:48:29;4.00;82.40
47546;DHT22;50104;52.002;4.688;2024-03-08T01:53:30;3.90;82.50
47546;DHT22;50104;52.002;4.688;2024-03-08T01:58:32;3.90;82.40
47546;DHT22;50104;52.002;4.688;2024-03-08T02:03:33;3.90;82.50
47546;DHT22;50104;52.002;4.688;2024-03-08T02:08:34;3.80;82.70
47546;DHT22;50104;52.002;4.688;2024-03-08T02:13:35;3.80;82.40
47546;DHT22;50104;52.002;4.688;2024-03-08T02:18:36;3.80;82.20
47546;DHT22;50104;52.002;4.688;2024-03-08T02:23:40;3.70;82.10
47546;DHT22;50104;52.002;4.688;2024-03-08T02:28:41;3.70;82.40
47546;DHT22;50104;52.002;4.688;2024-03-08T02:33:44;3.60;82.60
47546;DHT22;50104;52.002;4.688;2024-03-08T02:38:47;3.60;82.20
47546;DHT22;50104;52.002;4.688;2024-03-08T02:43:48;3.60;82.40
47546;DHT22;50104;52.002;4.688;2024-03-08T02:48:50;3.50;82.40
47546;DHT22;50104;52.002;4.688;2024-03-08T02:53:51;3.50;82.20
47546;DHT22;50104;52.002;4.688;2024-03-08T02:58:52;3.50;82.40
47546;DHT22;50104;52.002;4.688;2024-03-08T03:03:53;3.40;82.20
47546;DHT22;50104;52.002;4.688;2024-03-08T03:08:54;3.40;82.10
47546;DHT22;50104;52.002;4.688;2024-03-08T03:13:55;3.30;82.20
47546;DHT22;50104;52.002;4.688;2024-03-08T03:18:56;3.30;82.10
47546;DHT22;50104;52.002;4.688;2024-03-08T03:23:57;3.20;82.70
47546;DHT22;50104;52.002;4.688;2024-03-08T03:28:59;3.20;82.40
47546;DHT22;50104;52.002;4.688;2024-03-08T03:34:01;3.20;82.50
47546;DHT22;50104;52.002;4.688;2024-03-08T03:39:04;3.20;82.60
47546;DHT22;50104;52.002;4.688;2024-03-08T03:44:16;3.10;82.50
47546;DHT22;50104;52.002;4.688;2024-03-08T03:49:17;3.10;82.40
47546;DHT22;50104;52.002;4.688;2024-03-08T03:54:18;3.10;82.60
47546;DHT22;50104;52.002;4.688;2024-03-08T03:59:19;3.00;82.40
47546;DHT22;50104;52.002;4.688;2024-03-08T04:04:21;3.00;82.50
47546;DHT22;50104;52.002;4.688;2024-03-08T04:09:22;2.90;82.50
47546;DHT22;50104;52.002;4.688;2024-03-08T04:14:23;2.90;82.40
47546;DHT22;50104;52.002;4.688;2024-03-08T04:19:24;2.90;82.50
47546;DHT22;50104;52.002;4.688;2024-03-08T04:24:27;2.80;82.40
47546;DHT22;50104;52.002;4.688;2024-03-08T04:29:28;2.80;82.30
47546;DHT22;50104;52.002;4.688;2024-03-08T04:34:29;2.70;82.80
47546;DHT22;50104;52.002;4.688;2024-03-08T04:39:30;2.70;82.70
47546;DHT22;50104;52.002;4.688;2024-03-08T04:44:32;2.70;82.70
47546;DHT22;50104;52.002;4.688;2024-03-08T04:49:34;2.70;82.50
47546;DHT22;50104;52.002;4.688;2024-03-08T04:54:35;2.60;82.50
47546;DHT22;50104;52.002;4.688;2024-03-08T04:59:35;2.60;82.40
47546;DHT22;50104;52.002;4.688;2024-03-08T05:04:36;2.60;82.40
47546;DHT22;50104;52.002;4.688;2024-03-08T05:09:37;2.50;82.70
47546;DHT22;50104;52.002;4.688;2024-03-08T05:14:38;2.50;82.70
47546;DHT22;50104;52.002;4.688;2024-03-08T05:19:39;2.50;82.60
47546;DHT22;50104;52.002;4.688;2024-03-08T05:24:40;2.50;82.40
47546;DHT22;50104;52.002;4.688;2024-03-08T05:29:41;2.40;82.50
47546;DHT22;50104;52.002;4.688;2024-03-08T05:34:42;2.40;82.60
47546;DHT22;50104;52.002;4.688;2024-03-08T05:39:43;2.40;82.40
47546;DHT22;50104;52.002;4.688;2024-03-08T05:44:45;2.30;82.40
47546;DHT22;50104;52.002;4.688;2024-03-08T05:49:46;2.30;82.50
47546;DHT22;50104;52.002;4.688;2024-03-08T05:54:46;2.30;82.60
47546;DHT22;50104;52.002;4.688;2024-03-08T05:59:47;2.20;82.60
47546;DHT22;50104;52.002;4.688;2024-03-08T06:04:48;2.20;82.90
47546;DHT22;50104;52.002;4.688;2024-03-08T06:09:50;2.20;82.90
47546;DHT22;50104;52.002;4.688;2024-03-08T06:14:51;2.20;82.70
47546;DHT22;50104;52.002;4.688;2024-03-08T06:19:51;2.20;82.60
47546;DHT22;50104;52.002;4.688;2024-03-08T06:24:52;2.10;82.90
47546;DHT22;50104;52.002;4.688;2024-03-08T06:29:54;2.10;82.80
47546;DHT22;50104;52.002;4.688;2024-03-08T06:34:55;2.10;82.90
47546;DHT22;50104;52.002;4.688;2024-03-08T06:39:56;2.10;82.90
47546;DHT22;50104;52.002;4.688;2024-03-08T06:44:57;2.10;82.80
47546;DHT22;50104;52.002;4.688;2024-03-08T06:50:05;2.10;83.10
47546;DHT22;50104;52.002;4.688;2024-03-08T06:55:06;2.00;83.10
47546;DHT22;50104;52.002;4.688;2024-03-08T07:00:08;2.00;83.40
47546;DHT22;50104;52.002;4.688;2024-03-08T07:05:10;2.00;83.50
47546;DHT22;50104;52.002;4.688;2024-03-08T07:10:12;2.10;83.70
47546;DHT22;50104;52.002;4.688;2024-03-08T07:15:15;2.10;84.10
47546;DHT22;50104;52.002;4.688;2024-03-08T07:20:16;2.10;83.90
47546;DHT22;50104;52.002;4.688;2024-03-08T07:25:19;2.20;84.20
47546;DHT22;50104;52.002;4.688;2024-03-08T07:30:25;2.20;84.30
47546;DHT22;50104;52.002;4.688;2024-03-08T07:35:45;2.40;84.40
47546;DHT22;50104;52.002;4.688;2024-03-08T07:40:47;2.50;84.50
47546;DHT22;50104;52.002;4.688;2024-03-08T07:45:48;2.50;84.60
47546;DHT22;50104;52.002;4.688;2024-03-08T07:50:49;2.60;84.60
47546;DHT22;50104;52.002;4.688;2024-03-08T07:55:51;2.80;84.60
47546;DHT22;50104;52.002;4.688;2024-03-08T08:00:52;2.90;84.50
47546;DHT22;50104;52.002;4.688;2024-03-08T08:05:52;3.00;84.60
47546;DHT22;50104;52.002;4.688;2024-03-08T08:10:54;3.10;84.70
47546;DHT22;50104;52.002;4.688;2024-03-08T08:15:55;3.20;84.70
47546;DHT22;50104;52.002;4.688;2024-03-08T08:20:57;3.30;84.80
47546;DHT22;50104;52.002;4.688;2024-03-08T08:25:58;3.50;84.70
47546;DHT22;50104;52.002;4.688;2024-03-08T08:30:59;3.60;84.70
47546;DHT22;50104;52.002;4.688;2024-03-08T08:36:00;3.70;84.70
47546;DHT22;50104;52.002;4.688;2024-03-08T08:41:01;3.90;84.70
47546;DHT22;50104;52.002;4.688;2024-03-08T08:46:02;4.00;84.80
47546;DHT22;50104;52.002;4.688;2024-03-08T08:51:05;4.20;84.80
47546;DHT22;50104;52.002;4.688;2024-03-08T08:56:06;4.30;84.80
47546;DHT22;50104;52.002;4.688;2024-03-08T09:01:09;4.50;84.70
47546;DHT22;50104;52.002;4.688;2024-03-08T09:06:13;4.70;84.60
47546;DHT22;50104;52.002;4.688;2024-03-08T09:11:14;4.90;84.70
47546;DHT22;50104;52.002;4.688;2024-03-08T09:16:15;5.10;84.60
47546;DHT22;50104;52.002;4.688;2024-03-08T09:21:17;5.30;84.40
47546;DHT22;50104;52.002;4.688;2024-03-08T09:26:18;5.50;84.50
47546;DHT22;50104;52.002;4.688;2024-03-08T09:31:19;5.70;84.50
47546;DHT22;50104;52.002;4.688;2024-03-08T09:36:20;5.90;84.30
47546;DHT22;50104;52.002;4.688;2024-03-08T09:41:21;6.20;84.10
47546;DHT22;50104;52.002;4.688;2024-03-08T09:46:23;6.40;83.60
47546;DHT22;50104;52.002;4.688;2024-03-08T09:51:28;6.60;83.50
47546;DHT22;50104;52.002;4.688;2024-03-08T09:56:29;6.80;83.40
47546;DHT22;50104;52.002;4.688;2024-03-08T10:01:30;7.00;83.20
47546;DHT22;50104;52.002;4.688;2024-03-08T10:06:31;7.30;82.90
47546;DHT22;50104;52.002;4.688;2024-03-08T10:11:32;7.50;82.80
47546;DHT22;50104;52.002;4.688;2024-03-08T10:16:33;7.70;81.80
47546;DHT22;50104;52.002;4.688;2024-03-08T10:21:35;7.90;81.70
47546;DHT22;50104;52.002;4.688;2024-03-08T10:26:37;8.10;81.40
47546;DHT22;50104;52.002;4.688;2024-03-08T10:31:38;8.30;81.20
47546;DHT22;50104;52.002;4.688;2024-03-08T10:36:40;8.60;80.60
47546;DHT22;50104;52.002;4.688;2024-03-08T10:41:43;8.70;79.60
47546;DHT22;50104;52.002;4.688;2024-03-08T10:52:17;9.20;77.90
47546;DHT22;50104;52.002;4.688;2024-03-08T10:57:19;9.40;77.50
47546;DHT22;50104;52.002;4.688;2024-03-08T11:02:20;9.60;76.80
47546;DHT22;50104;52.002;4.688;2024-03-08T11:07:21;9.80;76.20
47546;DHT22;50104;52.002;4.688;2024-03-08T11:12:29;9.90;75.30
47546;DHT22;50104;52.002;4.688;2024-03-08T11:22:35;10.20;74.20
47546;DHT22;50104;52.002;4.688;2024-03-08T11:27:36;10.40;74.00
47546;DHT22;50104;52.002;4.688;2024-03-08T11:32:45;10.50;74.60
47546;DHT22;50104;52.002;4.688;2024-03-08T11:37:46;10.70;73.70
47546;DHT22;50104;52.002;4.688;2024-03-08T11:42:49;10.90;73.40
47546;DHT22;50104;52.002;4.688;2024-03-08T11:47:52;11.00;74.00
47546;DHT22;50104;52.002;4.688;2024-03-08T11:52:53;11.20;73.80
47546;DHT22;50104;52.002;4.688;2024-03-08T11:58:04;11.30;73.80
47546;DHT22;50104;52.002;4.688;2024-03-08T12:03:08;11.50;73.90
47546;DHT22;50104;52.002;4.688;2024-03-08T12:08:12;11.60;73.00
47546;DHT22;50104;52.002;4.688;2024-03-08T12:13:13;11.80;71.80
47546;DHT22;50104;52.002;4.688;2024-03-08T12:18:14;11.90;72.50
47546;DHT22;50104;52.002;4.688;2024-03-08T12:23:15;12.00;71.50
47546;DHT22;50104;52.002;4.688;2024-03-08T12:28:19;12.10;71.90
47546;DHT22;50104;52.002;4.688;2024-03-08T12:33:20;12.30;71.40
47546;DHT22;50104;52.002;4.688;2024-03-08T12:38:22;12.40;72.70
47546;DHT22;50104;52.002;4.688;2024-03-08T12:43:25;12.50;72.20
47546;DHT22;50104;52.002;4.688;2024-03-08T12:48:26;12.60;71.90
47546;DHT22;50104;52.002;4.688;2024-03-08T12:53:27;12.70;71.30
47546;DHT22;50104;52.002;4.688;2024-03-08T12:58:29;12.80;70.70
47546;DHT22;50104;52.002;4.688;2024-03-08T13:03:30;12.80;70.10
47546;DHT22;50104;52.002;4.688;2024-03-08T13:08:32;12.90;69.30
47546;DHT22;50104;52.002;4.688;2024-03-08T13:13:36;13.00;68.70
47546;DHT22;50104;52.002;4.688;2024-03-08T13:18:37;13.00;68.30
47546;DHT22;50104;52.002;4.688;2024-03-08T13:23:39;13.10;68.70
47546;DHT22;50104;52.002;4.688;2024-03-08T13:28:42;13.20;69.90
47546;DHT22;50104;52.002;4.688;2024-03-08T13:33:45;13.30;68.90
47546;DHT22;50104;52.002;4.688;2024-03-08T13:38:50;13.40;71.00
47546;DHT22;50104;52.002;4.688;2024-03-08T13:43:59;13.60;70.80
47546;DHT22;50104;52.002;4.688;2024-03-08T13:49:19;13.80;70.60
47546;DHT22;50104;52.002;4.688;2024-03-08T13:54:46;13.90;69.00
47546;DHT22;50104;52.002;4.688;2024-03-08T13:59:51;13.90;69.20
47546;DHT22;50104;52.002;4.688;2024-03-08T14:05:10;13.90;69.60
47546;DHT22;50104;52.002;4.688;2024-03-08T14:10:17;14.00;69.00
47546;DHT22;50104;52.002;4.688;2024-03-08T14:15:50;14.00;68.20
47546;DHT22;50104;52.002;4.688;2024-03-08T14:20:57;14.00;67.70
47546;DHT22;50104;52.002;4.688;2024-03-08T14:25:59;14.00;67.90
47546;DHT22;50104;52.002;4.688;2024-03-08T14:31:16;14.00;68.30
47546;DHT22;50104;52.002;4.688;2024-03-08T14:36:27;14.00;68.40
47546;DHT22;50104;52.002;4.688;2024-03-08T14:41:31;14.00;68.40
47546;DHT22;50104;52.002;4.688;2024-03-08T14:46:32;14.00;67.60
47546;DHT22;50104;52.002;4.688;2024-03-08T14:51:37;14.00;66.50
47546;DHT22;50104;52.002;4.688;2024-03-08T14:56:47;14.00;66.70
47546;DHT22;50104;52.002;4.688;2024-03-08T15:01:56;13.90;67.20
47546;DHT22;50104;52.002;4.688;2024-03-08T15:06:57;13.90;66.40
47546;DHT22;50104;52.002;4.688;2024-03-08T15:11:58;13.80;64.60
47546;DHT22;50104;52.002;4.688;2024-03-08T15:16:59;13.70;64.60
47546;DHT22;50104;52.002;4.688;2024-03-08T15:22:02;13.60;67.40
47546;DHT22;50104;52.002;4.688;2024-03-08T15:27:03;13.50;65.50
47546;DHT22;50104;52.002;4.688;2024-03-08T15:32:05;13.50;66.90
47546;DHT22;50104;52.002;4.688;2024-03-08T15:37:07;13.40;66.10
47546;DHT22;50104;52.002;4.688;2024-03-08T15:42:08;13.30;66.60
47546;DHT22;50104;52.002;4.688;2024-03-08T15:47:11;13.20;66.60
47546;DHT22;50104;52.002;4.688;2024-03-08T15:52:12;13.00;64.10
47546;DHT22;50104;52.002;4.688;2024-03-08T15:57:13;12.80;64.20
47546;DHT22;50104;52.002;4.688;2024-03-08T16:02:16;12.70;65.00
47546;DHT22;50104;52.002;4.688;2024-03-08T16:07:19;12.50;64.70
47546;DHT22;50104;52.002;4.688;2024-03-08T16:12:20;12.40;65.20
47546;DHT22;50104;52.002;4.688;2024-03-08T16:17:20;12.30;65.60
47546;DHT22;50104;52.002;4.688;2024-03-08T16:22:21;12.10;67.20
47546;DHT22;50104;52.002;4.688;2024-03-08T16:27:22;12.10;67.80
47546;DHT22;50104;52.002;4.688;2024-03-08T16:32:23;12.00;68.10
47546;DHT22;50104;52.002;4.688;2024-03-08T16:37:24;12.00;67.50
47546;DHT22;50104;52.002;4.688;2024-03-08T16:42:27;11.90;67.30
47546;DHT22;50104;52.002;4.688;2024-03-08T16:47:27;11.80;67.10
47546;DHT22;50104;52.002;4.688;2024-03-08T16:52:28;11.60;67.20
47546;DHT22;50104;52.002;4.688;2024-03-08T16:57:29;11.50;67.10
47546;DHT22;50104;52.002;4.688;2024-03-08T17:02:32;11.40;67.40
47546;DHT22;50104;52.002;4.688;2024-03-08T17:07:33;11.20;67.60
47546;DHT22;50104;52.002;4.688;2024-03-08T17:12:34;11.10;67.80
47546;DHT22;50104;52.002;4.688;2024-03-08T17:17:35;10.90;68.20
47546;DHT22;50104;52.002;4.688;2024-03-08T17:22:36;10.80;68.30
47546;DHT22;50104;52.002;4.688;2024-03-08T17:27:37;10.60;68.50
47546;DHT22;50104;52.002;4.688;2024-03-08T17:32:38;10.50;68.70
47546;DHT22;50104;52.002;4.688;2024-03-08T17:37:38;10.30;68.80
47546;DHT22;50104;52.002;4.688;2024-03-08T17:42:40;10.20;68.80
47546;DHT22;50104;52.002;4.688;2024-03-08T17:47:41;10.10;69.00
47546;DHT22;50104;52.002;4.688;2024-03-08T17:52:42;9.90;69.20
47546;DHT22;50104;52.002;4.688;2024-03-08T17:57:47;9.80;69.50
47546;DHT22;50104;52.002;4.688;2024-03-08T18:02:49;9.70;69.70
47546;DHT22;50104;52.002;4.688;2024-03-08T18:07:51;9.50;69.90
47546;DHT22;50104;52.002;4.688;2024-03-08T18:12:56;9.40;70.20
47546;DHT22;50104;52.002;4.688;2024-03-08T18:18:03;9.30;70.40
47546;DHT22;50104;52.002;4.688;2024-03-08T18:23:05;9.20;70.50
47546;DHT22;50104;52.002;4.688;2024-03-08T18:28:08;9.10;70.80
47546;DHT22;50104;52.002;4.688;2024-03-08T18:33:10;9.00;70.80
47546;DHT22;50104;52.002;4.688;2024-03-08T18:38:12;8.90;71.10
47546;DHT22;50104;52.002;4.688;2024-03-08T18:43:13;8.80;71.20
47546;DHT22;50104;52.002;4.688;2024-03-08T18:48:14;8.70;71.30
47546;DHT22;50104;52.002;4.688;2024-03-08T18:53:15;8.60;71.40
47546;DHT22;50104;52.002;4.688;2024-03-08T18:58:15;8.50;71.60
47546;DHT22;50104;52.002;4.688;2024-03-08T19:03:17;8.40;71.80
47546;DHT22;50104;52.002;4.688;2024-03-08T19:08:18;8.40;71.90
47546;DHT22;50104;52.002;4.688;2024-03-08T19:13:19;8.30;72.10
47546;DHT22;50104;52.002;4.688;2024-03-08T19:18:21;8.20;72.10
47546;DHT22;50104;52.002;4.688;2024-03-08T19:23:25;8.10;72.30
47546;DHT22;50104;52.002;4.688;2024-03-08T19:28:27;8.00;72.30
47546;DHT22;50104;52.002;4.688;2024-03-08T19:33:28;8.00;72.40
47546;DHT22;50104;52.002;4.688;2024-03-08T19:38:29;7.90;72.60
47546;DHT22;50104;52.002;4.688;2024-03-08T19:43:31;7.80;72.40
47546;DHT22;50104;52.002;4.688;2024-03-08T19:48:33;7.80;72.80
47546;DHT22;50104;52.002;4.688;2024-03-08T19:53:33;7.70;72.70
47546;DHT22;50104;52.002;4.688;2024-03-08T19:58:36;7.60;72.70
47546;DHT22;50104;52.002;4.688;2024-03-08T20:03:37;7.50;72.90
47546;DHT22;50104;52.002;4.688;2024-03-08T20:08:38;7.50;73.00
47546;DHT22;50104;52.002;4.688;2024-03-08T20:13:41;7.40;73.10
47546;DHT22;50104;52.002;4.688;2024-03-08T20:18:43;7.30;73.10
47546;DHT22;50104;52.002;4.688;2024-03-08T20:23:44;7.30;73.00
47546;DHT22;50104;52.002;4.688;2024-03-08T20:28:45;7.20;73.20
47546;DHT22;50104;52.002;4.688;2024-03-08T20:33:46;7.10;73.40
47546;DHT22;50104;52.002;4.688;2024-03-08T20:38:47;7.10;73.50
47546;DHT22;50104;52.002;4.688;2024-03-08T20:43:48;7.10;73.60
47546;DHT22;50104;52.002;4.688;2024-03-08T20:48:49;7.00;73.90
47546;DHT22;50104;52.002;4.688;2024-03-08T20:53:50;7.00;73.70
47546;DHT22;50104;52.002;4.688;2024-03-08T20:58:50;6.90;74.10
47546;DHT22;50104;52.002;4.688;2024-03-08T21:03:53;6.80;73.90
47546;DHT22;50104;52.002;4.688;2024-03-08T21:08:53;6.80;74.10
47546;DHT22;50104;52.002;4.688;2024-03-08T21:13:56;6.70;74.10
47546;DHT22;50104;52.002;4.688;2024-03-08T21:18:57;6.70;74.10
47546;DHT22;50104;52.002;4.688;2024-03-08T21:23:57;6.60;74.20
47546;DHT22;50104;52.002;4.688;2024-03-08T21:28:58;6.60;74.50
47546;DHT22;50104;52.002;4.688;2024-03-08T21:33:59;6.50;74.50
47546;DHT22;50104;52.002;4.688;2024-03-08T21:39:01;6.50;74.60
47546;DHT22;50104;52.002;4.688;2024-03-08T21:44:04;6.40;74.50
47546;DHT22;50104;52.002;4.688;2024-03-08T21:49:04;6.40;74.60
47546;DHT22;50104;52.002;4.688;2024-03-08T21:54:06;6.40;74.80
47546;DHT22;50104;52.002;4.688;2024-03-08T21:59:07;6.30;74.90
47546;DHT22;50104;52.002;4.688;2024-03-08T22:04:08;6.30;75.30
47546;DHT22;50104;52.002;4.688;2024-03-08T22:09:12;6.20;75.40
47546;DHT22;50104;52.002;4.688;2024-03-08T22:14:14;6.20;75.60
47546;DHT22;50104;52.002;4.688;2024-03-08T22:19:15;6.20;75.50
47546;DHT22;50104;52.002;4.688;2024-03-08T22:24:15;6.10;75.80
47546;DHT22;50104;52.002;4.688;2024-03-08T22:29:17;6.10;76.00
47546;DHT22;50104;52.002;4.688;2024-03-08T22:34:18;6.10;76.10
47546;DHT22;50104;52.002;4.688;2024-03-08T22:39:18;6.10;76.00
47546;DHT22;50104;52.002;4.688;2024-03-08T22:44:19;6.00;76.00
47546;DHT22;50104;52.002;4.688;2024-03-08T22:49:20;6.00;76.30
47546;DHT22;50104;52.002;4.688;2024-03-08T22:54:21;5.90;76.20
47546;DHT22;50104;52.002;4.688;2024-03-08T22:59:23;5.90;76.40
47546;DHT22;50104;52.002;4.688;2024-03-08T23:04:24;5.90;76.70
47546;DHT22;50104;52.002;4.688;2024-03-08T23:09:26;5.90;76.80
47546;DHT22;50104;52.002;4.688;2024-03-08T23:14:28;5.90;76.70
47546;DHT22;50104;52.002;4.688;2024-03-08T23:19:29;5.90;76.80
47546;DHT22;50104;52.002;4.688;2024-03-08T23:24:30;5.80;76.80
47546;DHT22;50104;52.002;4.688;2024-03-08T23:29:31;5.80;77.20
47546;DHT22;50104;52.002;4.688;2024-03-08T23:34:33;5.80;76.90
47546;DHT22;50104;52.002;4.688;2024-03-08T23:39:35;5.80;77.00
47546;DHT22;50104;52.002;4.688;2024-03-08T23:44:36;5.80;76.90
47546;DHT22;50104;52.002;4.688;2024-03-08T23:49:37;5.70;77.00
47546;DHT22;50104;52.002;4.688;2024-03-08T23:54:38;5.70;77.10
47546;DHT22;50104;52.002;4.688;2024-03-08T23:59:40;5.70;77.10
